sensor_id;sensor_type;location;lat;lon;timestamp;temperature;humidity
23291;DHT22;11814;44.686;10.842;2024-01-11T00:01:47;3.80;99.90
23291;DHT22;11814;44.686;10.842;2024-01-11T00:04:13;3.70;99.90
23291;DHT22;11814;44.686;10.842;2024-01-11T00:06:45;3.70;99.90
23291;DHT22;11814;44.686;10.842;2024-01-11T00:09:11;3.80;99.90
23291;DHT22;11814;44.686;10.842;2024-01-11T00:11:37;3.80;99.90
23291;DHT22;11814;44.686;10.842;2024-01-11T00:14:03;3.90;99.90
23291;DHT22;11814;44.686;10.842;2024-01-11T00:16:28;4.00;99.90
23291;DHT22;11814;44.686;10.842;2024-01-11T00:18:54;3.90;99.90
23291;DHT22;11814;44.686;10.842;2024-01-11T00:21:20;3.90;99.90
23291;DHT22;11814;44.686;10.842;2024-01-11T00:23:46;3.90;99.90
23291;DHT22;11814;44.686;10.842;2024-01-11T00:26:15;3.90;99.90
23291;DHT22;11814;44.686;10.842;2024-01-11T00:28:40;3.90;99.90
23291;DHT22;11814;44.686;10.842;2024-01-11T00:31:06;3.90;99.90
23291;DHT22;11814;44.686;10.842;2024-01-11T00:33:32;3.90;99.90
23291;DHT22;11814;44.686;10.842;2024-01-11T00:35:58;3.90;99.90
23291;DHT22;11814;44.686;10.842;2024-01-11T00:38:24;3.90;99.90
23291;DHT22;11814;44.686;10.842;2024-01-11T00:40:50;3.80;99.90
23291;DHT22;11814;44.686;10.842;2024-01-11T00:43:18;3.80;99.90
23291;DHT22;11814;44.686;10.842;2024-01-11T00:45:45;3.80;99.90
23291;DHT22;11814;44.686;10.842;2024-01-11T00:48:12;3.80;99.90
23291;DHT22;11814;44.686;10.842;2024-01-11T00:50:37;3.80;99.90
23291;DHT22;11814;44.686;10.842;2024-01-11T00:53:03;3.90;99.90
23291;DHT22;11814;44.686;10.842;2024-01-11T00:55:29;3.90;99.90
23291;DHT22;11814;44.686;10.842;2024-01-11T00:57:55;3.90;99.90
23291;DHT22;11814;44.686;10.842;2024-01-11T01:00:21;3.90;99.90
23291;DHT22;11814;44.686;10.842;2024-01-11T01:02:50;3.90;99.90
23291;DHT22;11814;44.686;10.842;2024-01-11T01:05:16;3.90;99.90
23291;DHT22;11814;44.686;10.842;2024-01-11T01:07:42;4.00;99.90
23291;DHT22;11814;44.686;10.842;2024-01-11T01:10:08;4.10;99.90
23291;DHT22;11814;44.686;10.842;2024-01-11T01:12:34;4.10;99.90
23291;DHT22;11814;44.686;10.842;2024-01-11T01:15:00;4.10;99.90
23291;DHT22;11814;44.686;10.842;2024-01-11T01:17:26;4.00;99.90
23291;DHT22;11814;44.686;10.842;2024-01-11T01:19:52;4.00;99.90
23291;DHT22;11814;44.686;10.842;2024-01-11T01:22:18;4.00;99.90
23291;DHT22;11814;44.686;10.842;2024-01-11T01:24:43;4.00;99.90
23291;DHT22;11814;44.686;10.842;2024-01-11T01:27:09;4.00;99.90
23291;DHT22;11814;44.686;10.842;2024-01-11T01:29:35;3.90;99.90
23291;DHT22;11814;44.686;10.842;2024-01-11T01:32:01;3.90;99.90
23291;DHT22;11814;44.686;10.842;2024-01-11T01:34:26;3.90;99.90
23291;DHT22;11814;44.686;10.842;2024-01-11T01:36:52;3.90;99.90
23291;DHT22;11814;44.686;10.842;2024-01-11T01:39:18;3.90;99.90
23291;DHT22;11814;44.686;10.842;2024-01-11T01:41:44;3.80;99.90
23291;DHT22;11814;44.686;10.842;2024-01-11T01:44:12;3.80;99.90
23291;DHT22;11814;44.686;10.842;2024-01-11T01:46:38;3.80;99.90
23291;DHT22;11814;44.686;10.842;2024-01-11T01:49:04;3.80;99.90
23291;DHT22;11814;44.686;10.842;2024-01-11T01:51:32;3.90;99.90
23291;DHT22;11814;44.686;10.842;2024-01-11T01:53:58;3.70;99.90
23291;DHT22;11814;44.686;10.842;2024-01-11T01:56:26;3.70;99.90
23291;DHT22;11814;44.686;10.842;2024-01-11T01:58:53;3.70;99.90
23291;DHT22;11814;44.686;10.842;2024-01-11T02:01:20;3.70;99.90
23291;DHT22;11814;44.686;10.842;2024-01-11T02:03:50;3.70;99.90
23291;DHT22;11814;44.686;10.842;2024-01-11T02:06:18;3.70;99.90
23291;DHT22;11814;44.686;10.842;2024-01-11T02:08:51;3.70;99.90
23291;DHT22;11814;44.686;10.842;2024-01-11T02:11:20;3.70;99.90
23291;DHT22;11814;44.686;10.842;2024-01-11T02:13:49;3.70;99.90
23291;DHT22;11814;44.686;10.842;2024-01-11T02:16:16;3.70;99.90
23291;DHT22;11814;44.686;10.842;2024-01-11T02:18:42;3.70;99.90
23291;DHT22;11814;44.686;10.842;2024-01-11T02:21:11;3.70;99.90
23291;DHT22;11814;44.686;10.842;2024-01-11T02:23:51;3.80;99.90
23291;DHT22;11814;44.686;10.842;2024-01-11T02:26:17;3.80;99.90
23291;DHT22;11814;44.686;10.842;2024-01-11T02:28:44;3.80;99.90
23291;DHT22;11814;44.686;10.842;2024-01-11T02:31:11;3.80;99.90
23291;DHT22;11814;44.686;10.842;2024-01-11T02:33:38;3.80;99.90
23291;DHT22;11814;44.686;10.842;2024-01-11T02:36:07;3.80;99.90
23291;DHT22;11814;44.686;10.842;2024-01-11T02:38:34;3.90;99.90
23291;DHT22;11814;44.686;10.842;2024-01-11T02:41:01;3.80;99.90
23291;DHT22;11814;44.686;10.842;2024-01-11T02:43:27;3.90;99.90
23291;DHT22;11814;44.686;10.842;2024-01-11T02:45:56;3.90;99.90
23291;DHT22;11814;44.686;10.842;2024-01-11T02:48:30;3.90;99.90
23291;DHT22;11814;44.686;10.842;2024-01-11T02:50:57;3.90;99.90
23291;DHT22;11814;44.686;10.842;2024-01-11T02:53:23;3.90;99.90
23291;DHT22;11814;44.686;10.842;2024-01-11T02:55:50;3.90;99.90
23291;DHT22;11814;44.686;10.842;2024-01-11T02:58:16;3.90;99.90
23291;DHT22;11814;44.686;10.842;2024-01-11T03:00:42;3.90;99.90
23291;DHT22;11814;44.686;10.842;2024-01-11T03:03:07;3.90;99.90
23291;DHT22;11814;44.686;10.842;2024-01-11T03:05:33;3.90;99.90
23291;DHT22;11814;44.686;10.842;2024-01-11T03:07:59;3.90;99.90
23291;DHT22;11814;44.686;10.842;2024-01-11T03:10:28;3.90;99.90
23291;DHT22;11814;44.686;10.842;2024-01-11T03:12:54;3.90;99.90
23291;DHT22;11814;44.686;10.842;2024-01-11T03:15:19;3.90;99.90
23291;DHT22;11814;44.686;10.842;2024-01-11T03:17:45;3.80;99.90
23291;DHT22;11814;44.686;10.842;2024-01-11T03:20:14;3.80;99.90
23291;DHT22;11814;44.686;10.842;2024-01-11T03:22:45;3.80;99.90
23291;DHT22;11814;44.686;10.842;2024-01-11T03:25:12;3.80;99.90
23291;DHT22;11814;44.686;10.842;2024-01-11T03:27:37;3.80;99.90
23291;DHT22;11814;44.686;10.842;2024-01-11T03:30:03;3.90;99.90
23291;DHT22;11814;44.686;10.842;2024-01-11T03:32:30;3.90;99.90
23291;DHT22;11814;44.686;10.842;2024-01-11T03:34:56;3.90;99.90
23291;DHT22;11814;44.686;10.842;2024-01-11T03:37:21;3.80;99.90
23291;DHT22;11814;44.686;10.842;2024-01-11T03:39:47;3.80;99.90
23291;DHT22;11814;44.686;10.842;2024-01-11T03:42:13;3.80;99.90
23291;DHT22;11814;44.686;10.842;2024-01-11T03:44:38;3.80;99.90
23291;DHT22;11814;44.686;10.842;2024-01-11T03:47:04;3.80;99.90
23291;DHT22;11814;44.686;10.842;2024-01-11T03:49:30;3.80;99.90
23291;DHT22;11814;44.686;10.842;2024-01-11T03:51:55;3.80;99.90
23291;DHT22;11814;44.686;10.842;2024-01-11T03:54:21;3.70;99.90
23291;DHT22;11814;44.686;10.842;2024-01-11T03:56:46;3.70;99.90
23291;DHT22;11814;44.686;10.842;2024-01-11T03:59:12;3.60;99.90
23291;DHT22;11814;44.686;10.842;2024-01-11T04:01:41;3.70;99.90
23291;DHT22;11814;44.686;10.842;2024-01-11T04:04:07;3.70;99.90
23291;DHT22;11814;44.686;10.842;2024-01-11T04:06:33;3.70;99.90
23291;DHT22;11814;44.686;10.842;2024-01-11T04:08:59;3.60;99.90
23291;DHT22;11814;44.686;10.842;2024-01-11T04:11:28;3.60;99.90
23291;DHT22;11814;44.686;10.842;2024-01-11T04:13:54;3.60;99.90
23291;DHT22;11814;44.686;10.842;2024-01-11T04:16:20;3.60;99.90
23291;DHT22;11814;44.686;10.842;2024-01-11T04:18:46;3.50;99.90
23291;DHT22;11814;44.686;10.842;2024-01-11T04:21:25;3.50;99.90
23291;DHT22;11814;44.686;10.842;2024-01-11T04:23:54;3.50;99.90
23291;DHT22;11814;44.686;10.842;2024-01-11T04:26:20;3.40;99.90
23291;DHT22;11814;44.686;10.842;2024-01-11T04:28:46;3.40;99.90
23291;DHT22;11814;44.686;10.842;2024-01-11T04:31:14;3.40;99.90
23291;DHT22;11814;44.686;10.842;2024-01-11T04:33:46;3.40;99.90
23291;DHT22;11814;44.686;10.842;2024-01-11T04:36:12;3.30;99.90
23291;DHT22;11814;44.686;10.842;2024-01-11T04:38:38;3.40;99.90
23291;DHT22;11814;44.686;10.842;2024-01-11T04:41:13;3.30;99.90
23291;DHT22;11814;44.686;10.842;2024-01-11T04:43:43;3.30;99.90
23291;DHT22;11814;44.686;10.842;2024-01-11T04:46:27;3.30;99.90
23291;DHT22;11814;44.686;10.842;2024-01-11T04:48:53;3.20;99.90
23291;DHT22;11814;44.686;10.842;2024-01-11T04:51:19;3.20;99.90
23291;DHT22;11814;44.686;10.842;2024-01-11T04:53:46;3.20;99.90
23291;DHT22;11814;44.686;10.842;2024-01-11T04:56:13;3.20;99.90
23291;DHT22;11814;44.686;10.842;2024-01-11T04:58:41;3.20;99.90
23291;DHT22;11814;44.686;10.842;2024-01-11T05:01:14;3.20;99.90
23291;DHT22;11814;44.686;10.842;2024-01-11T05:03:40;3.20;99.90
23291;DHT22;11814;44.686;10.842;2024-01-11T05:06:06;3.20;99.90
23291;DHT22;11814;44.686;10.842;2024-01-11T05:08:32;3.10;99.90
23291;DHT22;11814;44.686;10.842;2024-01-11T05:10:58;3.10;99.90
23291;DHT22;11814;44.686;10.842;2024-01-11T05:13:24;3.10;99.90
23291;DHT22;11814;44.686;10.842;2024-01-11T05:15:50;3.00;99.90
23291;DHT22;11814;44.686;10.842;2024-01-11T05:18:15;3.00;99.90
23291;DHT22;11814;44.686;10.842;2024-01-11T05:20:41;3.00;99.90
23291;DHT22;11814;44.686;10.842;2024-01-11T05:23:06;3.00;99.90
23291;DHT22;11814;44.686;10.842;2024-01-11T05:25:32;3.10;99.90
23291;DHT22;11814;44.686;10.842;2024-01-11T05:28:02;3.00;99.90
23291;DHT22;11814;44.686;10.842;2024-01-11T05:30:29;2.90;99.90
23291;DHT22;11814;44.686;10.842;2024-01-11T05:32:55;2.90;99.90
23291;DHT22;11814;44.686;10.842;2024-01-11T05:35:21;2.90;99.90
23291;DHT22;11814;44.686;10.842;2024-01-11T05:37:49;2.80;99.90
23291;DHT22;11814;44.686;10.842;2024-01-11T05:40:15;2.70;99.90
23291;DHT22;11814;44.686;10.842;2024-01-11T05:42:41;2.70;99.90
23291;DHT22;11814;44.686;10.842;2024-01-11T05:45:06;2.60;99.90
23291;DHT22;11814;44.686;10.842;2024-01-11T05:47:32;2.70;99.90
23291;DHT22;11814;44.686;10.842;2024-01-11T05:49:58;2.70;99.90
23291;DHT22;11814;44.686;10.842;2024-01-11T05:52:24;2.70;99.90
23291;DHT22;11814;44.686;10.842;2024-01-11T05:54:50;2.70;99.90
23291;DHT22;11814;44.686;10.842;2024-01-11T05:57:15;2.60;99.90
23291;DHT22;11814;44.686;10.842;2024-01-11T05:59:45;2.60;99.90
23291;DHT22;11814;44.686;10.842;2024-01-11T06:02:11;2.60;99.90
23291;DHT22;11814;44.686;10.842;2024-01-11T06:04:37;2.50;99.90
23291;DHT22;11814;44.686;10.842;2024-01-11T06:07:03;2.60;99.90
23291;DHT22;11814;44.686;10.842;2024-01-11T06:09:29;2.50;99.90
23291;DHT22;11814;44.686;10.842;2024-01-11T06:11:54;2.50;99.90
23291;DHT22;11814;44.686;10.842;2024-01-11T06:14:20;2.50;99.90
23291;DHT22;11814;44.686;10.842;2024-01-11T06:16:46;2.40;99.90
23291;DHT22;11814;44.686;10.842;2024-01-11T06:19:11;2.40;99.90
23291;DHT22;11814;44.686;10.842;2024-01-11T06:21:37;2.40;99.90
23291;DHT22;11814;44.686;10.842;2024-01-11T06:24:03;2.40;99.90
23291;DHT22;11814;44.686;10.842;2024-01-11T06:26:29;2.40;99.90
23291;DHT22;11814;44.686;10.842;2024-01-11T06:28:54;2.40;99.90
23291;DHT22;11814;44.686;10.842;2024-01-11T06:31:20;2.40;99.90
23291;DHT22;11814;44.686;10.842;2024-01-11T06:33:46;2.40;99.90
23291;DHT22;11814;44.686;10.842;2024-01-11T06:36:11;2.40;99.90
23291;DHT22;11814;44.686;10.842;2024-01-11T06:38:37;2.40;99.90
23291;DHT22;11814;44.686;10.842;2024-01-11T06:41:03;2.40;99.90
23291;DHT22;11814;44.686;10.842;2024-01-11T06:43:29;2.40;99.90
23291;DHT22;11814;44.686;10.842;2024-01-11T06:45:54;2.40;99.90
23291;DHT22;11814;44.686;10.842;2024-01-11T06:48:20;2.40;99.90
23291;DHT22;11814;44.686;10.842;2024-01-11T06:50:46;2.40;99.90
23291;DHT22;11814;44.686;10.842;2024-01-11T06:53:11;2.40;99.90
23291;DHT22;11814;44.686;10.842;2024-01-11T06:55:37;2.40;99.90
23291;DHT22;11814;44.686;10.842;2024-01-11T06:58:03;2.40;99.90
23291;DHT22;11814;44.686;10.842;2024-01-11T07:00:28;2.40;99.90
23291;DHT22;11814;44.686;10.842;2024-01-11T07:02:54;2.40;99.90
23291;DHT22;11814;44.686;10.842;2024-01-11T07:05:20;2.40;99.90
23291;DHT22;11814;44.686;10.842;2024-01-11T07:07:46;2.50;99.90
23291;DHT22;11814;44.686;10.842;2024-01-11T07:10:12;2.50;99.90
23291;DHT22;11814;44.686;10.842;2024-01-11T07:12:38;2.50;99.90
23291;DHT22;11814;44.686;10.842;2024-01-11T07:15:06;2.50;99.90
23291;DHT22;11814;44.686;10.842;2024-01-11T07:17:33;2.60;99.90
23291;DHT22;11814;44.686;10.842;2024-01-11T07:19:59;2.70;99.90
23291;DHT22;11814;44.686;10.842;2024-01-11T07:22:25;2.60;99.90
23291;DHT22;11814;44.686;10.842;2024-01-11T07:24:50;2.60;99.90
23291;DHT22;11814;44.686;10.842;2024-01-11T07:27:16;2.70;99.90
23291;DHT22;11814;44.686;10.842;2024-01-11T07:29:41;2.70;99.90
23291;DHT22;11814;44.686;10.842;2024-01-11T07:32:07;2.80;99.90
23291;DHT22;11814;44.686;10.842;2024-01-11T07:34:33;2.90;99.90
23291;DHT22;11814;44.686;10.842;2024-01-11T07:36:59;3.00;99.90
23291;DHT22;11814;44.686;10.842;2024-01-11T07:39:24;3.00;99.90
23291;DHT22;11814;44.686;10.842;2024-01-11T07:41:50;3.10;99.90
23291;DHT22;11814;44.686;10.842;2024-01-11T07:44:15;3.20;99.90
23291;DHT22;11814;44.686;10.842;2024-01-11T07:46:42;3.50;99.90
23291;DHT22;11814;44.686;10.842;2024-01-11T07:49:07;4.00;99.90
23291;DHT22;11814;44.686;10.842;2024-01-11T07:51:34;4.40;99.90
23291;DHT22;11814;44.686;10.842;2024-01-11T07:54:02;4.70;99.90
23291;DHT22;11814;44.686;10.842;2024-01-11T07:56:29;5.30;99.90
23291;DHT22;11814;44.686;10.842;2024-01-11T07:58:55;6.10;99.90
23291;DHT22;11814;44.686;10.842;2024-01-11T08:01:20;6.70;99.90
23291;DHT22;11814;44.686;10.842;2024-01-11T08:03:46;7.40;99.90
23291;DHT22;11814;44.686;10.842;2024-01-11T08:06:13;8.20;99.90
23291;DHT22;11814;44.686;10.842;2024-01-11T08:08:38;8.90;99.10
23291;DHT22;11814;44.686;10.842;2024-01-11T08:11:06;9.60;96.50
23291;DHT22;11814;44.686;10.842;2024-01-11T08:13:32;10.30;93.90
23291;DHT22;11814;44.686;10.842;2024-01-11T08:16:03;11.10;91.60
23291;DHT22;11814;44.686;10.842;2024-01-11T08:18:30;11.60;88.60
23291;DHT22;11814;44.686;10.842;2024-01-11T08:20:56;12.10;85.00
23291;DHT22;11814;44.686;10.842;2024-01-11T08:23:22;12.70;81.70
23291;DHT22;11814;44.686;10.842;2024-01-11T08:25:47;13.30;78.10
23291;DHT22;11814;44.686;10.842;2024-01-11T08:28:13;13.70;74.80
23291;DHT22;11814;44.686;10.842;2024-01-11T08:30:39;13.60;71.80
23291;DHT22;11814;44.686;10.842;2024-01-11T08:33:04;13.70;71.60
23291;DHT22;11814;44.686;10.842;2024-01-11T08:35:30;14.10;71.10
23291;DHT22;11814;44.686;10.842;2024-01-11T08:37:57;14.30;69.80
23291;DHT22;11814;44.686;10.842;2024-01-11T08:40:24;14.30;68.30
23291;DHT22;11814;44.686;10.842;2024-01-11T08:42:50;14.40;67.50
23291;DHT22;11814;44.686;10.842;2024-01-11T08:45:16;14.50;66.00
23291;DHT22;11814;44.686;10.842;2024-01-11T08:47:46;14.50;65.10
23291;DHT22;11814;44.686;10.842;2024-01-11T08:50:13;14.30;64.40
23291;DHT22;11814;44.686;10.842;2024-01-11T08:52:39;14.10;64.10
23291;DHT22;11814;44.686;10.842;2024-01-11T08:55:05;14.00;64.00
23291;DHT22;11814;44.686;10.842;2024-01-11T08:57:31;14.10;63.90
23291;DHT22;11814;44.686;10.842;2024-01-11T08:59:57;14.10;63.50
23291;DHT22;11814;44.686;10.842;2024-01-11T09:02:22;14.10;63.00
23291;DHT22;11814;44.686;10.842;2024-01-11T09:04:48;14.20;63.10
23291;DHT22;11814;44.686;10.842;2024-01-11T09:07:14;14.30;62.50
23291;DHT22;11814;44.686;10.842;2024-01-11T09:09:41;14.20;62.00
23291;DHT22;11814;44.686;10.842;2024-01-11T09:12:07;14.10;61.50
23291;DHT22;11814;44.686;10.842;2024-01-11T09:14:33;14.20;61.90
23291;DHT22;11814;44.686;10.842;2024-01-11T09:16:58;14.30;61.80
23291;DHT22;11814;44.686;10.842;2024-01-11T09:19:24;14.40;61.50
23291;DHT22;11814;44.686;10.842;2024-01-11T09:21:49;14.50;61.00
23291;DHT22;11814;44.686;10.842;2024-01-11T09:24:15;14.50;59.90
23291;DHT22;11814;44.686;10.842;2024-01-11T09:26:41;14.60;59.50
23291;DHT22;11814;44.686;10.842;2024-01-11T09:29:06;14.90;59.30
23291;DHT22;11814;44.686;10.842;2024-01-11T09:31:32;15.20;59.50
23291;DHT22;11814;44.686;10.842;2024-01-11T09:33:58;15.50;58.50
23291;DHT22;11814;44.686;10.842;2024-01-11T09:36:23;15.90;57.60
23291;DHT22;11814;44.686;10.842;2024-01-11T09:38:50;16.30;56.90
23291;DHT22;11814;44.686;10.842;2024-01-11T09:41:16;16.70;56.40
23291;DHT22;11814;44.686;10.842;2024-01-11T09:43:42;17.20;55.70
23291;DHT22;11814;44.686;10.842;2024-01-11T09:46:09;17.60;54.40
23291;DHT22;11814;44.686;10.842;2024-01-11T09:48:38;17.90;53.20
23291;DHT22;11814;44.686;10.842;2024-01-11T09:51:10;18.10;52.20
23291;DHT22;11814;44.686;10.842;2024-01-11T09:53:38;18.40;51.50
23291;DHT22;11814;44.686;10.842;2024-01-11T09:56:09;18.60;51.10
23291;DHT22;11814;44.686;10.842;2024-01-11T09:58:35;18.80;50.80
23291;DHT22;11814;44.686;10.842;2024-01-11T10:01:08;19.00;49.60
23291;DHT22;11814;44.686;10.842;2024-01-11T10:03:35;19.20;49.20
23291;DHT22;11814;44.686;10.842;2024-01-11T10:06:00;19.40;48.90
23291;DHT22;11814;44.686;10.842;2024-01-11T10:08:27;19.60;48.50
23291;DHT22;11814;44.686;10.842;2024-01-11T10:10:54;19.80;48.00
23291;DHT22;11814;44.686;10.842;2024-01-11T10:13:28;19.80;47.40
23291;DHT22;11814;44.686;10.842;2024-01-11T10:16:11;19.90;46.80
23291;DHT22;11814;44.686;10.842;2024-01-11T10:18:41;20.00;46.20
23291;DHT22;11814;44.686;10.842;2024-01-11T10:21:07;20.20;46.20
23291;DHT22;11814;44.686;10.842;2024-01-11T10:23:36;20.50;45.60
23291;DHT22;11814;44.686;10.842;2024-01-11T10:26:02;20.60;45.00
23291;DHT22;11814;44.686;10.842;2024-01-11T10:28:28;20.60;45.40
23291;DHT22;11814;44.686;10.842;2024-01-11T10:30:54;20.70;44.80
23291;DHT22;11814;44.686;10.842;2024-01-11T10:33:21;20.80;43.90
23291;DHT22;11814;44.686;10.842;2024-01-11T10:35:48;20.80;43.20
23291;DHT22;11814;44.686;10.842;2024-01-11T10:38:17;21.00;43.30
23291;DHT22;11814;44.686;10.842;2024-01-11T10:40:43;21.10;42.80
23291;DHT22;11814;44.686;10.842;2024-01-11T10:43:10;21.10;42.50
23291;DHT22;11814;44.686;10.842;2024-01-11T10:45:41;21.20;42.30
23291;DHT22;11814;44.686;10.842;2024-01-11T10:48:14;21.30;42.20
23291;DHT22;11814;44.686;10.842;2024-01-11T10:50:44;21.30;41.80
23291;DHT22;11814;44.686;10.842;2024-01-11T10:55:44;21.40;41.90
23291;DHT22;11814;44.686;10.842;2024-01-11T10:58:11;21.40;41.60
23291;DHT22;11814;44.686;10.842;2024-01-11T11:00:37;21.40;41.20
23291;DHT22;11814;44.686;10.842;2024-01-11T11:03:05;21.20;41.00
23291;DHT22;11814;44.686;10.842;2024-01-11T11:05:33;21.30;41.40
23291;DHT22;11814;44.686;10.842;2024-01-11T11:08:01;21.50;41.40
23291;DHT22;11814;44.686;10.842;2024-01-11T11:10:31;21.60;40.80
23291;DHT22;11814;44.686;10.842;2024-01-11T11:12:58;21.60;40.50
23291;DHT22;11814;44.686;10.842;2024-01-11T11:15:28;21.60;40.30
23291;DHT22;11814;44.686;10.842;2024-01-11T11:17:57;21.50;40.50
23291;DHT22;11814;44.686;10.842;2024-01-11T11:20:23;21.60;40.70
23291;DHT22;11814;44.686;10.842;2024-01-11T11:23:03;21.60;40.50
23291;DHT22;11814;44.686;10.842;2024-01-11T11:25:30;21.50;40.80
23291;DHT22;11814;44.686;10.842;2024-01-11T11:27:57;21.60;41.20
23291;DHT22;11814;44.686;10.842;2024-01-11T11:30:23;21.50;40.10
23291;DHT22;11814;44.686;10.842;2024-01-11T11:32:52;21.40;39.80
23291;DHT22;11814;44.686;10.842;2024-01-11T11:35:20;21.30;39.80
23291;DHT22;11814;44.686;10.842;2024-01-11T11:37:48;21.20;40.10
23291;DHT22;11814;44.686;10.842;2024-01-11T11:40:19;21.30;40.30
23291;DHT22;11814;44.686;10.842;2024-01-11T11:42:46;21.40;40.30
23291;DHT22;11814;44.686;10.842;2024-01-11T11:45:25;21.40;40.10
23291;DHT22;11814;44.686;10.842;2024-01-11T11:47:51;21.30;39.80
23291;DHT22;11814;44.686;10.842;2024-01-11T11:50:17;21.20;39.80
23291;DHT22;11814;44.686;10.842;2024-01-11T11:52:56;21.10;40.00
23291;DHT22;11814;44.686;10.842;2024-01-11T11:55:23;20.90;40.00
23291;DHT22;11814;44.686;10.842;2024-01-11T11:57:51;20.80;40.20
23291;DHT22;11814;44.686;10.842;2024-01-11T12:00:17;20.80;40.40
23291;DHT22;11814;44.686;10.842;2024-01-11T12:02:43;20.80;40.60
23291;DHT22;11814;44.686;10.842;2024-01-11T12:05:09;20.70;40.70
23291;DHT22;11814;44.686;10.842;2024-01-11T12:07:35;20.80;40.80
23291;DHT22;11814;44.686;10.842;2024-01-11T12:10:01;20.70;40.60
23291;DHT22;11814;44.686;10.842;2024-01-11T12:12:30;20.60;40.30
23291;DHT22;11814;44.686;10.842;2024-01-11T12:14:57;20.60;40.40
23291;DHT22;11814;44.686;10.842;2024-01-11T12:17:24;20.40;40.30
23291;DHT22;11814;44.686;10.842;2024-01-11T12:19:54;20.20;40.30
23291;DHT22;11814;44.686;10.842;2024-01-11T12:22:20;20.00;40.60
23291;DHT22;11814;44.686;10.842;2024-01-11T12:24:46;19.80;40.90
23291;DHT22;11814;44.686;10.842;2024-01-11T12:27:12;19.80;41.10
23291;DHT22;11814;44.686;10.842;2024-01-11T12:29:47;19.60;41.30
23291;DHT22;11814;44.686;10.842;2024-01-11T12:32:13;19.50;41.80
23291;DHT22;11814;44.686;10.842;2024-01-11T12:34:43;19.40;42.00
23291;DHT22;11814;44.686;10.842;2024-01-11T12:37:08;19.30;42.40
23291;DHT22;11814;44.686;10.842;2024-01-11T12:39:40;19.20;42.50
23291;DHT22;11814;44.686;10.842;2024-01-11T12:42:05;19.00;42.50
23291;DHT22;11814;44.686;10.842;2024-01-11T12:44:31;18.90;42.80
23291;DHT22;11814;44.686;10.842;2024-01-11T12:46:58;18.80;43.30
23291;DHT22;11814;44.686;10.842;2024-01-11T12:49:24;18.70;43.80
23291;DHT22;11814;44.686;10.842;2024-01-11T12:51:53;18.50;43.80
23291;DHT22;11814;44.686;10.842;2024-01-11T12:54:20;18.30;44.00
23291;DHT22;11814;44.686;10.842;2024-01-11T12:56:48;18.10;44.30
23291;DHT22;11814;44.686;10.842;2024-01-11T12:59:15;17.80;44.70
23291;DHT22;11814;44.686;10.842;2024-01-11T13:01:42;17.60;45.20
23291;DHT22;11814;44.686;10.842;2024-01-11T13:04:11;17.40;45.40
23291;DHT22;11814;44.686;10.842;2024-01-11T13:06:37;17.10;45.80
23291;DHT22;11814;44.686;10.842;2024-01-11T13:09:06;16.70;46.40
23291;DHT22;11814;44.686;10.842;2024-01-11T13:11:36;16.50;47.00
23291;DHT22;11814;44.686;10.842;2024-01-11T13:14:02;16.20;47.60
23291;DHT22;11814;44.686;10.842;2024-01-11T13:16:34;16.00;48.30
23291;DHT22;11814;44.686;10.842;2024-01-11T13:19:00;15.60;48.90
23291;DHT22;11814;44.686;10.842;2024-01-11T13:21:26;15.30;49.70
23291;DHT22;11814;44.686;10.842;2024-01-11T13:23:52;15.00;50.30
23291;DHT22;11814;44.686;10.842;2024-01-11T13:26:19;14.80;50.60
23291;DHT22;11814;44.686;10.842;2024-01-11T13:28:45;14.60;51.10
23291;DHT22;11814;44.686;10.842;2024-01-11T13:31:10;14.40;52.30
23291;DHT22;11814;44.686;10.842;2024-01-11T13:33:36;14.20;52.00
23291;DHT22;11814;44.686;10.842;2024-01-11T13:36:02;14.00;52.40
23291;DHT22;11814;44.686;10.842;2024-01-11T13:38:28;13.80;53.90
23291;DHT22;11814;44.686;10.842;2024-01-11T13:40:53;13.70;53.70
23291;DHT22;11814;44.686;10.842;2024-01-11T13:43:19;13.50;54.10
23291;DHT22;11814;44.686;10.842;2024-01-11T13:45:45;13.50;54.50
23291;DHT22;11814;44.686;10.842;2024-01-11T13:48:10;13.40;54.50
23291;DHT22;11814;44.686;10.842;2024-01-11T13:50:36;13.30;54.80
23291;DHT22;11814;44.686;10.842;2024-01-11T13:53:02;13.10;55.10
23291;DHT22;11814;44.686;10.842;2024-01-11T13:55:28;13.00;55.60
23291;DHT22;11814;44.686;10.842;2024-01-11T13:57:55;12.90;55.80
23291;DHT22;11814;44.686;10.842;2024-01-11T14:00:21;12.90;56.00
23291;DHT22;11814;44.686;10.842;2024-01-11T14:02:47;12.70;56.10
23291;DHT22;11814;44.686;10.842;2024-01-11T14:05:14;12.60;56.60
23291;DHT22;11814;44.686;10.842;2024-01-11T14:07:43;12.40;56.90
23291;DHT22;11814;44.686;10.842;2024-01-11T14:10:12;12.30;57.30
23291;DHT22;11814;44.686;10.842;2024-01-11T14:12:39;12.30;57.60
23291;DHT22;11814;44.686;10.842;2024-01-11T14:15:06;12.30;57.80
23291;DHT22;11814;44.686;10.842;2024-01-11T14:17:33;12.10;57.80
23291;DHT22;11814;44.686;10.842;2024-01-11T14:19:59;12.00;58.70
23291;DHT22;11814;44.686;10.842;2024-01-11T14:22:25;12.00;58.90
23291;DHT22;11814;44.686;10.842;2024-01-11T14:24:51;12.00;59.10
23291;DHT22;11814;44.686;10.842;2024-01-11T14:27:17;11.90;59.40
23291;DHT22;11814;44.686;10.842;2024-01-11T14:29:42;11.80;59.60
23291;DHT22;11814;44.686;10.842;2024-01-11T14:32:08;11.80;59.60
23291;DHT22;11814;44.686;10.842;2024-01-11T14:34:34;11.70;59.60
23291;DHT22;11814;44.686;10.842;2024-01-11T14:36:59;11.60;60.00
23291;DHT22;11814;44.686;10.842;2024-01-11T14:39:25;11.50;60.30
23291;DHT22;11814;44.686;10.842;2024-01-11T14:41:52;11.40;60.70
23291;DHT22;11814;44.686;10.842;2024-01-11T14:44:18;11.30;60.90
23291;DHT22;11814;44.686;10.842;2024-01-11T14:46:43;11.10;61.10
23291;DHT22;11814;44.686;10.842;2024-01-11T14:49:09;11.00;61.30
23291;DHT22;11814;44.686;10.842;2024-01-11T14:51:38;11.00;61.70
23291;DHT22;11814;44.686;10.842;2024-01-11T14:54:04;11.00;62.00
23291;DHT22;11814;44.686;10.842;2024-01-11T14:56:30;11.00;62.20
23291;DHT22;11814;44.686;10.842;2024-01-11T14:58:58;10.90;62.90
23291;DHT22;11814;44.686;10.842;2024-01-11T15:01:24;10.80;62.50
23291;DHT22;11814;44.686;10.842;2024-01-11T15:03:50;10.70;62.90
23291;DHT22;11814;44.686;10.842;2024-01-11T15:06:15;10.70;63.00
23291;DHT22;11814;44.686;10.842;2024-01-11T15:08:41;10.60;63.20
23291;DHT22;11814;44.686;10.842;2024-01-11T15:11:07;10.50;63.40
23291;DHT22;11814;44.686;10.842;2024-01-11T15:13:36;10.40;63.60
23291;DHT22;11814;44.686;10.842;2024-01-11T15:16:02;10.30;63.90
23291;DHT22;11814;44.686;10.842;2024-01-11T15:18:32;10.20;64.20
23291;DHT22;11814;44.686;10.842;2024-01-11T15:20:57;10.20;64.50
23291;DHT22;11814;44.686;10.842;2024-01-11T15:23:23;10.10;64.80
23291;DHT22;11814;44.686;10.842;2024-01-11T15:25:49;10.10;65.20